Time;durP1;ratioP1;P1;durP2;ratioP2;P2;SDS_P1;SDS_P2;PMS_P1;PMS_P2;Temp;Humidity;BMP_temperature;BMP_pressure;BME280_temperature;BME280_humidity;BME280_pressure;Samples;Min_cycle;Max_cycle;Signal;HPM_P1;HPM_P2
2022/09/06 00:00:14;;;;;;;7.82;4.57;;;;;;;19.32;76.86;101468.13;5019045;28;20028;-86
2022/09/06 00:02:43;;;;;;;9.07;4.97;;;;;;;19.16;77.91;101476.06;5015473;28;20387;-86
2022/09/06 00:05:10;;;;;;;5.82;4.30;;;;;;;19.10;77.81;101488.06;5026940;28;20076;-86
2022/09/06 00:07:36;;;;;;;7.82;4.78;;;;;;;19.13;77.90;101494.78;5017788;28;20040;-84
2022/09/06 00:10:02;;;;;;;6.32;4.22;;;;;;;19.16;77.96;101512.88;5003844;28;20034;-85
2022/09/06 00:12:28;;;;;;;6.68;4.60;;;;;;;19.08;78.86;101496.09;5006349;28;20060;-85
2022/09/06 00:14:53;;;;;;;5.40;4.13;;;;;;;19.12;79.18;101487.88;5000698;28;20562;-86
2022/09/06 00:17:19;;;;;;;5.68;4.20;;;;;;;19.25;78.07;101485.56;4998074;28;20363;-85
2022/09/06 00:19:44;;;;;;;5.90;4.13;;;;;;;19.22;78.76;101475.38;5007277;28;20061;-85
2022/09/06 00:22:10;;;;;;;6.10;4.47;;;;;;;18.97;80.10;101472.75;5006615;28;20038;-85
2022/09/06 00:24:36;;;;;;;6.13;4.38;;;;;;;19.16;79.05;101484.75;4988536;28;20458;-85
2022/09/06 00:27:03;;;;;;;6.45;4.47;;;;;;;18.96;78.97;101481.63;4996112;28;20025;-85
2022/09/06 00:29:28;;;;;;;8.50;4.57;;;;;;;19.00;79.24;101496.09;5007135;28;20029;-83
2022/09/06 00:31:53;;;;;;;5.38;4.40;;;;;;;18.99;78.86;101507.59;5007574;28;20149;-85
2022/09/06 00:34:19;;;;;;;5.90;4.15;;;;;;;18.94;80.36;101507.25;5002541;28;20034;-85
2022/09/06 00:36:44;;;;;;;5.80;4.65;;;;;;;19.02;79.54;101515.16;5003459;28;20032;-84
2022/09/06 00:39:09;;;;;;;6.30;4.28;;;;;;;18.96;78.21;101523.69;5007413;28;20032;-84
2022/09/06 00:41:35;;;;;;;6.05;4.20;;;;;;;19.01;79.91;101547.69;5004898;28;20029;-84
2022/09/06 00:44:00;;;;;;;6.30;4.50;;;;;;;18.92;80.87;101584.63;5005802;28;20116;-84
2022/09/06 00:46:29;;;;;;;6.40;4.63;;;;;;;19.13;79.51;101607.84;5005078;28;20121;-84
2022/09/06 00:48:57;;;;;;;;;;;;;;;19.29;76.72;101606.06;5004833;28;20124;-82
2022/09/06 00:51:25;;;;;;;6.45;5.10;;;;;;;18.95;81.19;101598.28;5005691;28;20361;-83
2022/09/06 00:53:51;;;;;;;8.95;5.25;;;;;;;18.86;81.48;101591.34;5005245;28;20053;-85
2022/09/06 00:56:16;;;;;;;6.38;5.05;;;;;;;19.15;79.97;101621.66;4997929;28;20025;-84
2022/09/06 00:58:42;;;;;;;11.15;6.05;;;;;;;19.18;80.22;101637.13;5006764;28;20462;-83
2022/09/06 01:01:08;;;;;;;7.85;6.60;;;;;;;19.18;80.14;101650.25;5006296;28;20034;-85
2022/09/06 01:03:34;;;;;;;8.73;7.38;;;;;;;18.96;81.39;101631.47;5015854;28;20040;-83
2022/09/06 01:06:06;;;;;;;9.40;7.07;;;;;;;18.94;81.31;101615.03;5009096;28;20080;-84
2022/09/06 01:08:38;;;;;;;8.55;6.53;;;;;;;19.12;80.00;101632.50;5014156;28;20108;-83
2022/09/06 01:11:15;;;;;;;8.48;7.07;;;;;;;18.95;81.37;101627.19;5006105;28;20034;-84
2022/09/06 01:14:04;;;;;;;8.17;7.10;;;;;;;19.01;81.25;101623.94;5024403;28;20044;-84
2022/09/06 01:16:44;;;;;;;8.30;6.65;;;;;;;19.14;80.88;101620.00;5036866;28;20136;-86
2022/09/06 01:19:29;;;;;;;8.27;6.85;;;;;;;19.07;82.24;101620.66;5044447;28;20021;-84
2022/09/06 01:22:18;;;;;;;9.15;7.43;;;;;;;19.04;82.52;101610.47;5046487;28;20049;-84
2022/09/06 01:25:09;;;;;;;8.15;7.07;;;;;;;19.09;81.85;101597.63;5045698;28;20108;-84
2022/09/06 01:27:57;;;;;;;8.40;6.75;;;;;;;18.93;82.35;101587.13;5033087;28;20476;-83
2022/09/06 01:30:23;;;;;;;8.80;7.30;;;;;;;19.02;81.78;101586.13;5046614;28;20083;-83
2022/09/06 01:33:16;;;;;;;7.85;6.60;;;;;;;19.01;80.85;101566.09;5036068;28;20037;-83
2022/09/06 01:36:03;;;;;;;8.27;6.95;;;;;;;18.89;82.07;101558.69;5037226;28;20040;-84
2022/09/06 01:38:28;;;;;;;8.02;6.75;;;;;;;19.03;80.91;101558.84;5044708;28;20036;-83
2022/09/06 01:40:57;;;;;;;8.88;6.95;;;;;;;19.09;80.18;101552.94;5044693;28;20033;-82
2022/09/06 01:43:35;;;;;;;10.05;7.85;;;;;;;18.83;81.84;101523.34;5045868;28;20519;-84
2022/09/06 01:46:04;;;;;;;8.93;7.55;;;;;;;18.83;80.86;101515.47;5028221;28;20029;-82
2022/09/06 01:49:12;;;;;;;9.63;7.43;;;;;;;18.88;80.46;101509.72;5045954;28;20029;-85
2022/09/06 01:52:14;;;;;;;8.73;7.28;;;;;;;18.88;80.32;101497.41;5044465;28;20060;-84
2022/09/06 01:55:10;;;;;;;9.55;7.35;;;;;;;18.74;81.23;101482.25;5043893;28;20051;-84
2022/09/06 01:57:50;;;;;;;9.32;7.68;;;;;;;18.62;82.75;101452.00;5025220;28;20112;-82
2022/09/06 02:00:19;;;;;;;9.50;7.90;;;;;;;18.43;82.56;101429.50;5045729;28;20476;-83
2022/09/06 02:03:01;;;;;;;9.80;7.50;;;;;;;18.55;80.51;101405.38;5043152;28;20029;-82
2022/09/06 02:05:50;;;;;;;8.50;7.57;;;;;;;18.67;81.10;101391.91;5044900;28;20028;-80
2022/09/06 02:08:28;;;;;;;8.93;7.95;;;;;;;18.43;82.97;101385.66;5036672;28;20059;-83
2022/09/06 02:11:03;;;;;;;8.90;7.85;;;;;;;18.45;82.33;101383.69;5038454;28;20025;-82
2022/09/06 02:13:40;;;;;;;8.93;8.02;;;;;;;18.45;83.30;101402.06;5041415;28;20098;-85
2022/09/06 02:16:08;;;;;;;9.73;8.70;;;;;;;18.33;83.25;101406.00;5014200;28;20025;-83
2022/09/06 02:18:46;;;;;;;9.23;8.30;;;;;;;18.20;83.53;101413.53;5033975;28;20115;-84
2022/09/06 02:21:14;;;;;;;;;;;;;;;18.60;80.40;101422.44;5028423;28;20071;-84
2022/09/06 02:23:42;;;;;;;9.35;8.38;;;;;;;18.37;83.63;101412.56;5048071;28;20263;-84
2022/09/06 02:26:13;;;;;;;9.85;8.80;;;;;;;18.35;83.34;101404.03;5048463;28;20503;-84
2022/09/06 02:28:38;;;;;;;9.40;7.85;;;;;;;18.48;82.65;101404.38;5034430;28;20057;-84
2022/09/06 02:31:17;;;;;;;10.85;9.23;;;;;;;18.47;83.30;101402.75;5035614;28;20080;-82
2022/09/06 02:33:45;;;;;;;9.68;8.68;;;;;;;18.49;83.47;101395.50;5035705;28;20124;-82
2022/09/06 02:36:10;;;;;;;9.75;8.75;;;;;;;18.46;83.64;101395.81;5047085;28;20077;-82
2022/09/06 02:38:39;;;;;;;10.40;8.77;;;;;;;18.37;84.13;101391.56;5048810;28;20064;-82
2022/09/06 02:41:05;;;;;;;9.02;8.13;;;;;;;18.39;82.82;101389.59;5049114;28;20484;-82
2022/09/06 02:43:31;;;;;;;10.07;8.48;;;;;;;18.41;83.43;101392.88;5028060;28;20047;-81
2022/09/06 02:45:56;;;;;;;9.65;8.65;;;;;;;18.42;83.93;101384.03;5042285;28;20037;-81
2022/09/06 02:48:22;;;;;;;7.97;7.18;;;;;;;18.62;82.15;101394.19;5036382;28;20032;-82
2022/09/06 02:50:47;;;;;;;9.60;7.88;;;;;;;18.56;82.23;101395.69;5037955;28;20457;-82
2022/09/06 02:53:14;;;;;;;9.75;8.23;;;;;;;18.39;83.66;101386.94;5045100;28;20082;-82
2022/09/06 02:55:39;;;;;;;9.90;7.85;;;;;;;18.44;82.84;101376.78;5048029;28;20059;-82
2022/09/06 02:58:06;;;;;;;11.15;8.75;;;;;;;18.22;84.19;101372.16;5035639;28;20456;-82
2022/09/06 03:00:32;;;;;;;9.07;8.18;;;;;;;18.31;83.37;101373.81;5048627;28;20048;-82
2022/09/06 03:02:58;;;;;;;9.00;8.10;;;;;;;18.26;83.23;101373.50;5041663;28;20029;-81
2022/09/06 03:05:27;;;;;;;10.05;8.93;;;;;;;18.42;83.50;101394.53;5048842;28;20037;-82
2022/09/06 03:07:53;;;;;;;9.15;8.07;;;;;;;18.42;82.98;101394.53;5035505;28;20020;-82
2022/09/06 03:10:20;;;;;;;9.82;8.50;;;;;;;18.50;82.01;101397.16;5047744;28;20382;-82
2022/09/06 03:12:46;;;;;;;9.02;8.10;;;;;;;18.55;82.91;101386.97;5047946;28;20024;-82
2022/09/06 03:15:13;;;;;;;9.60;8.50;;;;;;;18.59;82.66;101398.00;5046254;28;20490;-81
2022/09/06 03:17:39;;;;;;;10.02;8.85;;;;;;;18.48;82.84;101404.38;5029589;28;20112;-81
2022/09/06 03:20:05;;;;;;;9.45;8.55;;;;;;;18.54;82.86;101401.09;5030923;28;20120;-81
2022/09/06 03:22:31;;;;;;;10.18;9.07;;;;;;;18.58;82.52;101414.75;5047019;28;20039;-82
2022/09/06 03:24:56;;;;;;;11.30;10.20;;;;;;;18.48;83.08;101404.38;5048952;28;20028;-81
2022/09/06 03:27:22;;;;;;;11.50;10.40;;;;;;;18.48;83.20;101399.13;5047538;28;20029;-81
2022/09/06 03:29:48;;;;;;;11.88;10.68;;;;;;;18.43;83.52;101406.66;5048623;28;20028;-81
2022/09/06 03:32:14;;;;;;;12.52;11.15;;;;;;;18.44;83.19;101403.06;5029498;28;20079;-81
2022/09/06 03:34:39;;;;;;;12.57;11.27;;;;;;;18.32;83.59;101396.47;5047593;28;20033;-81
2022/09/06 03:37:05;;;;;;;13.13;11.70;;;;;;;18.13;85.03;101394.16;5047903;28;20369;-81
2022/09/06 03:39:30;;;;;;;13.25;12.02;;;;;;;18.00;84.84;101390.16;5048977;28;20029;-81
2022/09/06 03:41:55;;;;;;;13.05;11.75;;;;;;;18.11;84.73;101380.34;5048436;28;20036;-83
2022/09/06 03:44:21;;;;;;;13.20;11.95;;;;;;;18.05;84.88;101366.88;5047718;28;20555;-80
2022/09/06 03:46:46;;;;;;;13.63;12.23;;;;;;;18.03;85.80;101400.34;5047380;28;20357;-83
2022/09/06 03:49:11;;;;;;;12.68;11.48;;;;;;;18.08;85.29;101401.69;5041929;28;20025;-81
2022/09/06 03:51:37;;;;;;;13.77;12.48;;;;;;;17.84;86.62;101395.38;5042914;28;20230;-81
2022/09/06 03:54:02;;;;;;;13.80;12.50;;;;;;;17.99;86.57;101388.50;5040080;28;20029;-82
2022/09/06 03:56:28;;;;;;;13.50;12.13;;;;;;;18.15;85.46;101394.81;5020614;28;20102;-82
2022/09/06 03:58:53;;;;;;;13.68;12.27;;;;;;;18.22;85.21;101401.03;5038931;28;20578;-82
2022/09/06 04:01:18;;;;;;;13.50;12.30;;;;;;;18.25;84.98;101400.72;5039392;28;20031;-81
2022/09/06 04:03:44;;;;;;;13.05;11.75;;;;;;;18.35;83.97;101406.66;5040068;28;20381;-82
2022/09/06 04:06:10;;;;;;;13.38;12.18;;;;;;;18.31;84.15;101410.59;5041695;28;20107;-82
2022/09/06 04:08:36;;;;;;;14.15;12.25;;;;;;;18.27;84.66;101396.94;5038656;28;20029;-82
2022/09/06 04:11:03;;;;;;;13.45;12.15;;;;;;;18.28;84.35;101398.59;5039812;28;20534;-81
2022/09/06 04:13:32;;;;;;;13.18;11.90;;;;;;;18.30;84.61;101409.78;5045212;28;20041;-82
2022/09/06 04:15:58;;;;;;;13.70;12.30;;;;;;;18.27;84.88;101406.63;5037991;28;20091;-82
2022/09/06 04:18:24;;;;;;;13.85;12.52;;;;;;;17.93;85.77;101381.28;5031569;28;20049;-86
2022/09/06 04:20:51;;;;;;;13.55;12.25;;;;;;;18.03;86.16;101400.34;5030396;28;20059;-82
2022/09/06 04:23:18;;;;;;;13.13;11.98;;;;;;;18.01;85.18;101401.50;5034522;28;20025;-82
2022/09/06 04:25:48;;;;;;;13.75;12.55;;;;;;;17.95;85.83;101399.47;5034617;28;20048;-82
2022/09/06 04:28:14;;;;;;;13.80;12.50;;;;;;;17.80;85.77;101399.28;5040268;28;20055;-82
2022/09/06 04:30:39;;;;;;;13.15;11.93;;;;;;;17.82;86.20;101386.00;5041159;28;20508;-83
2022/09/06 04:33:05;;;;;;;13.63;12.35;;;;;;;17.61;86.54;101381.16;5033661;28;20457;-84
2022/09/06 04:35:30;;;;;;;13.85;12.55;;;;;;;17.73;85.98;101395.66;5018261;28;20491;-83
2022/09/06 04:37:59;;;;;;;13.63;12.43;;;;;;;17.53;86.90;101395.03;5043609;28;20051;-83
2022/09/06 04:40:25;;;;;;;14.40;13.00;;;;;;;17.57;86.49;101404.25;5028135;28;20032;-84
2022/09/06 04:42:50;;;;;;;13.55;12.20;;;;;;;17.61;86.44;101410.81;5030612;28;20076;-86
2022/09/06 04:45:16;;;;;;;13.88;12.48;;;;;;;17.56;86.63;101407.03;5046379;28;20013;-83
2022/09/06 04:47:41;;;;;;;14.45;13.05;;;;;;;17.51;86.49;101410.94;5039196;28;20040;-84
2022/09/06 04:50:07;;;;;;;13.93;12.55;;;;;;;17.38;86.84;101415.78;5047300;28;20036;-84
2022/09/06 04:52:32;;;;;;;13.32;12.02;;;;;;;17.48;86.70;101419.09;5029875;28;20029;-84
2022/09/06 04:54:58;;;;;;;14.18;12.88;;;;;;;17.46;86.61;101423.69;5032531;28;20055;-83
2022/09/06 04:57:23;;;;;;;13.95;12.65;;;;;;;17.39;86.99;101422.66;5045972;28;20376;-84
2022/09/06 04:59:48;;;;;;;13.85;12.65;;;;;;;17.43;86.68;101424.00;5028704;28;20417;-84
2022/09/06 05:02:14;;;;;;;13.95;12.65;;;;;;;17.30;87.04;101423.59;5046886;28;20124;-82
2022/09/06 05:04:39;;;;;;;14.30;12.90;;;;;;;17.30;86.67;101428.00;5039612;28;20473;-84
2022/09/06 05:07:08;;;;;;;14.50;13.20;;;;;;;17.29;86.79;101427.19;5043058;28;20546;-83
2022/09/06 05:09:34;;;;;;;14.23;12.82;;;;;;;17.28;87.35;101436.03;5041020;28;20086;-83
2022/09/06 05:11:59;;;;;;;13.00;11.82;;;;;;;17.20;86.96;101418.47;5035068;28;20033;-83
2022/09/06 05:14:25;;;;;;;13.98;12.57;;;;;;;17.08;87.36;101430.16;5034690;28;20493;-83
2022/09/06 05:16:51;;;;;;;14.02;12.77;;;;;;;17.07;88.13;101438.16;5041483;28;20041;-83
2022/09/06 05:19:18;;;;;;;14.55;13.07;;;;;;;17.11;88.01;101439.53;5035404;28;20056;-83
2022/09/06 05:21:43;;;;;;;21.02;13.50;;;;;;;17.14;88.07;101428.72;5046403;28;20405;-83
2022/09/06 05:24:09;;;;;;;15.27;13.88;;;;;;;17.16;87.76;101439.88;5028303;28;20036;-83
2022/09/06 05:26:34;;;;;;;15.88;14.40;;;;;;;17.18;87.54;101445.78;5027693;28;20032;-83
2022/09/06 05:29:00;;;;;;;14.95;13.45;;;;;;;17.21;87.41;101441.06;5025110;28;20124;-81
2022/09/06 05:31:30;;;;;;;15.40;13.90;;;;;;;17.18;88.20;101446.59;5037724;28;20067;-83
2022/09/06 05:33:56;;;;;;;14.90;13.50;;;;;;;17.13;88.06;101443.63;5045082;28;20032;-83
2022/09/06 05:36:23;;;;;;;15.50;14.10;;;;;;;17.25;88.07;101446.81;5044553;28;20078;-83
2022/09/06 05:38:53;;;;;;;15.82;14.23;;;;;;;17.32;87.97;101447.03;5042960;28;20093;-82
2022/09/06 05:41:19;;;;;;;15.10;13.80;;;;;;;17.41;87.16;101454.78;5040558;28;20051;-83
2022/09/06 05:43:45;;;;;;;15.63;14.25;;;;;;;17.46;87.24;101460.41;5044233;28;20028;-81
2022/09/06 05:46:11;;;;;;;17.15;15.45;;;;;;;17.42;87.96;101451.19;5039785;28;20036;-84
2022/09/06 05:48:37;;;;;;;17.25;15.65;;;;;;;17.39;87.43;101459.38;5028103;28;20025;-83
2022/09/06 05:51:05;;;;;;;16.55;15.05;;;;;;;17.33;87.48;101470.50;5045348;28;20036;-83
2022/09/06 05:53:41;;;;;;;;;;;;;;;17.58;86.00;101474.06;5022375;28;20029;-83
2022/09/06 05:56:07;;;;;;;14.85;13.32;;;;;;;17.22;86.13;101483.84;5029756;28;19967;-83
2022/09/06 05:58:33;;;;;;;14.10;12.68;;;;;;;17.22;86.16;101491.72;5025372;28;20504;-82
2022/09/06 06:01:13;;;;;;;13.82;12.48;;;;;;;17.15;87.58;101494.13;5029269;28;20033;-83
2022/09/06 06:03:38;;;;;;;15.13;13.63;;;;;;;17.14;87.78;101481.13;5035332;28;20033;-84
2022/09/06 06:06:04;;;;;;;16.00;14.48;;;;;;;17.23;87.65;101491.53;5049621;28;20028;-82
2022/09/06 06:08:29;;;;;;;17.75;16.23;;;;;;;17.25;88.85;101494.00;5037644;28;20029;-82
2022/09/06 06:10:59;;;;;;;17.45;15.85;;;;;;;17.30;89.19;101494.38;5036818;28;20534;-82
2022/09/06 06:13:27;;;;;;;18.58;16.88;;;;;;;17.32;89.89;101484.56;5022529;28;20190;-82
2022/09/06 06:15:52;;;;;;;19.25;17.50;;;;;;;17.45;89.15;101487.59;5037101;28;20381;-81
2022/09/06 06:18:18;;;;;;;19.23;17.52;;;;;;;17.51;88.89;101484.38;5036305;28;20253;-82
2022/09/06 06:20:43;;;;;;;20.08;18.17;;;;;;;17.52;89.03;101477.31;5044473;28;20104;-82
2022/09/06 06:23:08;;;;;;;19.52;17.83;;;;;;;17.55;89.29;101470.94;5033346;28;20038;-82
2022/09/06 06:25:34;;;;;;;19.23;17.63;;;;;;;17.60;90.44;101481.78;5044868;28;20025;-81
2022/09/06 06:27:59;;;;;;;18.90;17.20;;;;;;;17.66;90.02;101476.75;5046960;28;20021;-82
2022/09/06 06:30:24;;;;;;;19.15;17.35;;;;;;;17.75;88.64;101469.78;5046974;28;20029;-81
2022/09/06 06:32:50;;;;;;;18.00;16.50;;;;;;;17.79;89.07;101476.38;5040326;28;20029;-82
2022/09/06 06:35:15;;;;;;;19.15;17.42;;;;;;;17.77;89.37;101473.06;5049205;28;20025;-83
2022/09/06 06:37:41;;;;;;;18.65;16.95;;;;;;;17.86;88.58;101466.88;5038978;28;20428;-83
2022/09/06 06:40:07;;;;;;;19.45;17.48;;;;;;;17.88;89.22;101472.78;5042541;28;20051;-83
2022/09/06 06:42:33;;;;;;;18.70;16.80;;;;;;;17.89;88.70;101461.34;5037114;28;20572;-82
2022/09/06 06:44:58;;;;;;;20.15;18.35;;;;;;;17.93;89.73;101465.25;5039925;28;20112;-83
2022/09/06 06:47:24;;;;;;;19.40;17.65;;;;;;;18.03;89.01;101468.59;5032305;28;20356;-84
2022/09/06 06:49:49;;;;;;;20.02;18.23;;;;;;;18.01;89.01;101460.06;5035755;28;20044;-81
2022/09/06 06:52:15;;;;;;;20.17;18.48;;;;;;;18.04;87.60;101467.59;5037953;28;20117;-82
2022/09/06 06:54:40;;;;;;;19.25;17.45;;;;;;;18.14;87.31;101459.63;5039493;28;20025;-83
2022/09/06 06:57:08;;;;;;;21.52;19.58;;;;;;;18.12;86.29;101455.50;5040173;28;20040;-82
2022/09/06 06:59:34;;;;;;;21.13;19.17;;;;;;;18.18;86.98;101454.84;5036372;28;20025;-83
2022/09/06 07:01:59;;;;;;;20.35;18.63;;;;;;;18.23;85.99;101436.81;5034765;28;20025;-82
2022/09/06 07:04:24;;;;;;;19.83;18.10;;;;;;;18.29;85.82;101446.69;5035105;28;20037;-82
2022/09/06 07:06:52;;;;;;;19.42;17.73;;;;;;;18.27;84.73;101451.28;5034413;28;20025;-82
2022/09/06 07:09:19;;;;;;;18.15;16.55;;;;;;;18.46;83.92;101452.78;5035162;28;20274;-82
2022/09/06 07:11:47;;;;;;;20.58;18.75;;;;;;;18.42;84.33;101441.81;5048792;28;20025;-82
2022/09/06 07:14:12;;;;;;;19.10;17.40;;;;;;;18.45;84.96;101441.47;5031080;28;20071;-84
2022/09/06 07:16:38;;;;;;;19.63;17.80;;;;;;;18.54;84.41;101437.88;5042416;28;20449;-83
2022/09/06 07:19:03;;;;;;;18.92;17.25;;;;;;;18.53;84.39;101433.63;5047089;28;20033;-83
2022/09/06 07:21:29;;;;;;;19.45;17.70;;;;;;;18.62;85.22;101430.97;5048082;28;20064;-83
2022/09/06 07:23:55;;;;;;;19.02;17.33;;;;;;;18.78;84.47;101441.53;5048692;28;20579;-84
2022/09/06 07:26:23;;;;;;;19.75;18.05;;;;;;;18.85;85.22;101447.78;5047913;28;20131;-84
2022/09/06 07:28:58;;;;;;;18.73;17.23;;;;;;;18.92;84.58;101438.25;5048450;28;20048;-84
2022/09/06 07:31:25;;;;;;;20.30;18.60;;;;;;;19.08;83.02;101432.97;5047914;28;20029;-83
2022/09/06 07:33:50;;;;;;;19.50;17.77;;;;;;;19.15;81.96;101432.31;5034868;28;20025;-83
2022/09/06 07:36:16;;;;;;;18.33;16.73;;;;;;;19.27;81.66;101436.25;5047093;28;20471;-83
2022/09/06 07:38:42;;;;;;;18.35;16.58;;;;;;;19.23;80.37;101424.44;5046687;28;20037;-84
2022/09/06 07:41:09;;;;;;;17.70;16.10;;;;;;;19.30;79.97;101435.91;5044997;28;20474;-82
2022/09/06 07:43:35;;;;;;;17.27;15.88;;;;;;;19.43;80.04;101430.13;5041469;28;20029;-84
2022/09/06 07:46:09;;;;;;;17.58;15.95;;;;;;;19.39;80.13;101434.91;5043615;28;20017;-83
2022/09/06 07:48:36;;;;;;;18.33;16.73;;;;;;;19.50;79.18;101431.94;5039078;28;20033;-84
2022/09/06 07:51:15;;;;;;;18.15;16.60;;;;;;;19.49;79.61;101425.00;5033595;28;20049;-83
2022/09/06 07:53:42;;;;;;;18.10;16.60;;;;;;;19.67;78.78;101437.16;5023803;28;20029;-82
2022/09/06 07:56:10;;;;;;;18.08;16.48;;;;;;;19.70;78.74;101431.56;5029455;28;20027;-83
2022/09/06 07:58:36;;;;;;;17.92;16.40;;;;;;;19.88;78.24;101445.31;5021399;28;20041;-83
2022/09/06 08:01:36;;;;;;;18.30;16.70;;;;;;;19.95;78.56;101441.00;5031428;28;20534;-83
2022/09/06 08:04:07;;;;;;;19.10;17.30;;;;;;;20.05;77.64;101431.06;5045789;28;20025;-83
2022/09/06 08:06:38;;;;;;;18.00;16.48;;;;;;;20.12;76.57;101432.03;5047633;28;20469;-83
2022/09/06 08:09:07;;;;;;;17.88;16.27;;;;;;;20.17;75.81;101427.06;5047611;28;20115;-83
2022/09/06 08:11:33;;;;;;;17.25;15.65;;;;;;;20.26;75.80;101432.28;5047328;28;20469;-83
2022/09/06 08:14:01;;;;;;;16.98;15.45;;;;;;;20.34;75.35;101426.97;5046965;28;20540;-83
2022/09/06 08:16:28;;;;;;;16.95;15.43;;;;;;;20.47;74.62;101435.13;5028936;28;20376;-83
2022/09/06 08:18:56;;;;;;;17.20;15.43;;;;;;;20.53;74.70;101434.47;5043128;28;20028;-81
2022/09/06 08:21:23;;;;;;;15.95;14.45;;;;;;;20.69;73.82;101434.31;5040026;28;20024;-81
2022/09/06 08:23:51;;;;;;;15.32;13.93;;;;;;;20.74;73.90;101425.06;5012176;28;20040;-82
2022/09/06 08:26:19;;;;;;;14.48;13.13;;;;;;;20.84;73.09;101426.47;5036836;28;20052;-81
2022/09/06 08:28:45;;;;;;;13.20;11.93;;;;;;;20.93;71.82;101416.66;5044497;28;20039;-85
2022/09/06 08:31:13;;;;;;;12.70;11.48;;;;;;;21.03;71.11;101424.31;5047036;28;20380;-85
2022/09/06 08:33:39;;;;;;;14.10;11.50;;;;;;;21.14;71.04;101411.50;5044088;28;20017;-85
2022/09/06 08:36:06;;;;;;;12.52;11.10;;;;;;;21.27;70.24;101410.06;5045624;28;20539;-83
2022/09/06 08:38:34;;;;;;;15.27;12.25;;;;;;;21.39;70.69;101409.50;5045753;28;20025;-85
2022/09/06 08:41:06;;;;;;;13.48;11.45;;;;;;;21.48;70.88;101418.13;5047299;28;20028;-85
2022/09/06 08:43:32;;;;;;;12.05;10.95;;;;;;;21.57;69.57;101406.47;5041152;28;20532;-84
2022/09/06 08:45:58;;;;;;;10.85;9.75;;;;;;;21.62;68.21;101409.38;5034006;28;20067;-85
2022/09/06 08:48:31;;;;;;;11.07;9.60;;;;;;;21.58;68.09;101392.28;5046711;28;20460;-84
2022/09/06 08:51:37;;;;;;;11.07;8.73;;;;;;;21.76;68.90;101404.25;5022480;28;20104;-81
2022/09/06 08:54:35;;;;;;;9.50;8.48;;;;;;;21.90;68.11;101406.84;5038310;28;20155;-80
2022/09/06 08:57:28;;;;;;;8.80;7.90;;;;;;;22.06;67.20;101397.91;5041351;28;20044;-82
2022/09/06 08:59:59;;;;;;;9.52;8.43;;;;;;;22.22;66.38;101402.19;5035526;28;20029;-80
2022/09/06 09:02:25;;;;;;;9.23;6.78;;;;;;;22.36;65.26;101405.75;5040447;28;20036;-80
2022/09/06 09:05:00;;;;;;;7.97;4.85;;;;;;;22.43;63.81;101401.38;5046438;28;20021;-81
2022/09/06 09:07:37;;;;;;;7.30;4.80;;;;;;;22.51;64.25;101398.59;5043504;28;20522;-80
2022/09/06 09:10:10;;;;;;;7.05;4.80;;;;;;;22.70;63.15;101419.09;5028164;28;20071;-80
2022/09/06 09:12:45;;;;;;;5.78;4.30;;;;;;;22.79;62.90;101409.22;5039314;28;20037;-81
2022/09/06 09:15:12;;;;;;;6.50;4.78;;;;;;;22.84;61.41;101419.22;5041921;28;20120;-80
2022/09/06 09:17:38;;;;;;;5.60;4.18;;;;;;;22.92;61.89;101416.44;5045108;28;20033;-81
2022/09/06 09:20:04;;;;;;;7.97;5.03;;;;;;;22.89;60.82;101399.16;5046987;28;20357;-81
2022/09/06 09:22:30;;;;;;;7.90;4.75;;;;;;;22.89;61.01;101400.97;5046089;28;20140;-80
2022/09/06 09:24:57;;;;;;;7.43;4.53;;;;;;;23.14;61.31;101412.75;5040158;28;20139;-79
2022/09/06 09:27:26;;;;;;;7.40;4.35;;;;;;;23.25;61.82;101406.91;5040821;28;20032;-79
2022/09/06 09:29:54;;;;;;;8.13;5.20;;;;;;;23.31;60.64;101398.19;5038391;28;20053;-79
2022/09/06 09:32:58;;;;;;;7.72;5.18;;;;;;;23.42;62.23;101401.31;5043876;28;20049;-81
2022/09/06 09:35:39;;;;;;;6.78;4.75;;;;;;;23.39;62.96;101405.16;4977897;28;20039;-79
2022/09/06 09:38:30;;;;;;;7.43;4.50;;;;;;;23.44;61.25;101401.94;4966834;28;20043;-79
2022/09/06 09:41:06;;;;;;;5.85;3.10;;;;;;;23.50;60.93;101401.94;4968893;28;20552;-79
2022/09/06 09:43:40;;;;;;;4.78;3.53;;;;;;;23.70;58.84;101404.75;4969745;28;20475;-79
2022/09/06 09:46:23;;;;;;;5.95;3.40;;;;;;;23.75;60.10;101402.31;4968386;28;20035;-80
2022/09/06 09:49:05;;;;;;;5.25;3.42;;;;;;;23.94;58.96;101397.28;4962644;28;20074;-81
2022/09/06 09:51:39;;;;;;;6.03;3.33;;;;;;;23.92;58.06;101402.78;4966036;28;20029;-81
2022/09/06 09:54:08;;;;;;;8.57;3.55;;;;;;;23.94;57.98;101410.53;4963491;28;20097;-81
2022/09/06 09:56:51;;;;;;;5.82;3.10;;;;;;;24.15;58.67;101407.75;4967453;28;20222;-81
2022/09/06 09:59:20;;;;;;;6.40;3.65;;;;;;;24.10;58.20;101400.38;4969235;28;20031;-81
2022/09/06 10:01:46;;;;;;;6.60;3.60;;;;;;;24.11;57.87;101409.16;4967479;28;20609;-78
2022/09/06 10:04:19;;;;;;;4.85;3.00;;;;;;;24.10;58.83;101399.56;4968216;28;20041;-80
2022/09/06 10:06:44;;;;;;;7.53;3.63;;;;;;;24.41;58.01;101401.69;5020000;28;20159;-80
2022/09/06 10:09:38;;;;;;;7.15;4.20;;;;;;;24.33;59.28;101400.03;5045414;28;20129;-79
2022/09/06 10:12:03;;;;;;;9.18;4.50;;;;;;;24.26;58.25;101398.38;5041820;28;20037;-79
2022/09/06 10:14:43;;;;;;;6.60;3.85;;;;;;;24.51;56.89;101393.34;5044469;28;20136;-83
2022/09/06 10:17:37;;;;;;;5.28;4.00;;;;;;;24.55;58.39;101402.53;5046156;28;20029;-82
2022/09/06 10:20:11;;;;;;;5.65;4.63;;;;;;;24.46;57.23;101395.78;5031979;28;20033;-83
2022/09/06 10:22:48;;;;;;;6.97;3.80;;;;;;;24.65;58.22;101392.31;5021847;28;20029;-83
2022/09/06 10:25:46;;;;;;;6.47;3.80;;;;;;;24.78;58.48;101397.63;5049194;28;20039;-82
2022/09/06 10:28:32;;;;;;;8.27;4.63;;;;;;;24.64;57.03;101391.50;5045531;28;20033;-83
2022/09/06 10:31:16;;;;;;;9.38;4.72;;;;;;;24.92;56.08;101397.59;5034357;28;20033;-82
2022/09/06 10:33:44;;;;;;;5.78;4.18;;;;;;;25.05;56.63;101402.88;5045250;28;20032;-83
2022/09/06 10:36:09;;;;;;;;;;;;;;;25.15;57.97;101414.75;5044828;28;20029;-82
2022/09/06 10:38:49;;;;;;;7.07;3.83;;;;;;;25.03;56.26;101410.25;5048364;28;20534;-82
2022/09/06 10:41:33;;;;;;;6.22;3.53;;;;;;;25.12;56.01;101409.06;5023756;28;20403;-83
2022/09/06 10:44:26;;;;;;;5.57;3.22;;;;;;;25.23;56.31;101416.34;5042238;28;20068;-82
2022/09/06 10:47:02;;;;;;;4.88;3.40;;;;;;;25.30;55.85;101421.69;5038621;28;20029;-85
2022/09/06 10:49:28;;;;;;;6.45;3.28;;;;;;;25.47;55.08;101414.09;5030332;28;20012;-83
2022/09/06 10:51:57;;;;;;;5.35;3.40;;;;;;;25.45;55.52;101413.47;5037410;28;20370;-84
2022/09/06 10:54:23;;;;;;;6.32;4.00;;;;;;;25.49;55.90;101409.38;5047880;28;20487;-83
2022/09/06 10:57:00;;;;;;;5.53;3.50;;;;;;;25.49;55.23;101414.69;5030707;28;20115;-84
2022/09/06 10:59:29;;;;;;;4.65;3.28;;;;;;;25.55;54.55;101403.22;5018204;28;20033;-84
2022/09/06 11:02:13;;;;;;;6.47;2.97;;;;;;;25.77;54.76;101399.28;5048763;28;20501;-84
2022/09/06 11:04:41;;;;;;;6.40;3.90;;;;;;;25.80;53.12;101396.19;5040892;28;20025;-84
2022/09/06 11:07:12;;;;;;;6.10;3.60;;;;;;;25.82;54.42;101398.63;5032269;28;20029;-83
2022/09/06 11:09:42;;;;;;;4.25;3.00;;;;;;;25.88;54.10;101414.56;5035464;28;20043;-84
2022/09/06 11:12:15;;;;;;;5.03;2.50;;;;;;;25.77;52.84;101417.88;5048338;28;20039;-84
2022/09/06 11:14:40;;;;;;;5.18;2.85;;;;;;;25.78;53.03;101416.03;5039450;28;20055;-84
2022/09/06 11:17:29;;;;;;;5.90;2.60;;;;;;;26.05;53.24;101417.53;5044694;28;20025;-84
2022/09/06 11:20:11;;;;;;;6.05;3.33;;;;;;;26.14;53.34;101418.09;5020652;28;20067;-84
2022/09/06 11:23:13;;;;;;;11.52;3.80;;;;;;;26.17;54.09;101413.16;5043163;28;20087;-84
2022/09/06 11:25:53;;;;;;;8.18;4.30;;;;;;;26.34;52.45;101413.47;5030018;28;20120;-84
2022/09/06 11:28:29;;;;;;;5.70;3.40;;;;;;;26.45;52.33;101420.78;5044899;28;20045;-83
2022/09/06 11:30:56;;;;;;;6.07;3.60;;;;;;;26.27;52.54;101418.03;5016330;28;20362;-83
2022/09/06 11:33:29;;;;;;;5.53;4.30;;;;;;;26.43;52.63;101428.16;5047275;28;20350;-83